< < Back
Terminal Aerodrome Forecast


Current Version              Previous Versions:   1  2  3  4  5  6  7  8  9  

Terminal Aerodrome Forecast

421
FTUS42 KFFC 011700 RRA
TAFFTY
TAF
KFTY 011751Z 0118/0218 24005KT P6SM SCT050 SCT150
      TEMPO 0118/0120 VRB10KT 5SM -TSRA BKN040CB
     FM020100 20003KT P6SM FEW060 SCT150
     FM021400 29005KT P6SM SCT035 SCT150=

Latest METAR

031
SAUS70 KWBC 020300 RRK
MTRFTY
METAR KFTY 020253Z 00000KT 10SM FEW120 24/21 A3013 RMK AO2 SLP192
T02440211 53015


USA.gov is the U.S. government's official web portal to all federal, state and local government web resources and services.